Latest Weather Observations for Holsworthy

IDN60901

Issued at 8:15 am EDT Tuesday 21 October 2014 (issued every 10 minutes, with the page automatically refreshed every 10 minutes)

About weather observations | Map of Sydney area stations | Latest observations for Sydney area | Other Formats
Station Details ID: 066161 Name: HOLSWORTHY AERODROME AWS Lat: -33.99 Lon: 150.95 Height: 68.16 m
Data from the previous 72 hours. | See also: Recent months at Holsworthy
Date/Time
EDT
Tmp

°C
App
Tmp
°C
Dew
Point
°C
Rel
Hum
%
Delta-T

°C
Wind Press
QNH
hPa
Press
MSL
hPa
Rain
since
9 am
mm
Dir
 
Spd
km/h
Gust
km/h
Spd
kts
Gust
kts
21/08:00am 14.4 12.9 10.6 78 2.0 SSE 9 13 5 7 1032.3 1032.2 0.2
21/07:30am 13.7 12.3 10.9 83 1.5 S 9 13 5 7 1032.0 1031.9 0.2
21/07:00am 13.4 12.5 11.5 88 1.0 SSW 7 9 4 5 1031.8 1031.7 0.2
21/06:30am 13.0 11.7 11.2 89 1.0 SSW 9 11 5 6 1031.5 1031.3 0.2
21/06:00am 12.9 11.6 11.3 90 0.8 SSW 9 13 5 7 1031.3 1031.1 0.2
21/05:30am 13.2 13.7 11.6 90 0.9 CALM 0 4 0 2 1031.0 1030.8 0.2
21/05:00am 13.1 11.8 11.3 89 0.9 SSE 9 11 5 6 1031.1 1030.9 0.2
21/04:30am 13.1 10.6 11.2 88 1.0 SSE 15 20 8 11 1031.1 1030.9 0.2
21/04:00am 13.0 11.7 11.4 90 0.8 S 9 13 5 7 1031.3 1031.1 0.2
21/03:30am 13.3 12.6 12.0 92 0.7 S 7 9 4 5 1031.3 1031.1 0.2
21/03:00am 13.4 12.9 12.0 91 0.7 ESE 6 9 3 5 1031.4 1031.2 0.2
21/02:30am 13.5 12.9 12.4 93 0.6 ESE 7 9 4 5 1031.6 1031.4 0.2
21/02:00am 13.4 11.6 12.1 92 0.7 SSE 13 17 7 9 1031.7 1031.5 0.0
21/01:30am 13.9 11.3 11.9 88 1.1 SSE 17 24 9 13 1031.8 1031.7 0.0
21/01:00am 14.6 12.9 11.2 80 1.8 SSE 11 15 6 8 1031.7 1031.5 0.0
21/12:30am 15.0 15.1 11.4 79 1.9 S 2 7 1 4 1032.0 1031.9 0.0
21/12:00am 15.0 14.2 11.2 78 2.0 SE 6 7 3 4 1032.1 1032.0 0.0
 
Date/Time
EDT
Tmp

°C
App
Tmp
°C
Dew
Point
°C
Rel
Hum
%
Delta-T

°C
Wind Press
QNH
hPa
Press
MSL
hPa
Rain
since
9 am
mm
Dir
 
Spd
km/h
Gust
km/h
Spd
kts
Gust
kts
20/11:30pm 15.4 13.3 11.2 76 2.3 ESE 13 28 7 15 1032.1 1032.0 0.0
20/11:00pm 15.6 13.5 11.0 74 2.4 ESE 13 20 7 11 1032.1 1032.0 0.0
20/10:30pm 15.5 12.6 10.9 74 2.5 SE 17 28 9 15 1032.1 1032.0 0.0
20/10:00pm 15.6 13.1 11.0 74 2.4 SE 15 22 8 12 1032.2 1032.1 0.0
20/09:30pm 15.8 14.5 11.4 75 2.4 ESE 9 13 5 7 1032.1 1032.0 0.0
20/09:00pm 15.9 13.5 11.3 74 2.5 SSE 15 28 8 15 1031.9 1031.8 0.0
20/08:30pm 16.1 14.6 10.6 70 2.9 SE 9 13 5 7 1031.5 1031.3 0.0
20/08:00pm 16.2 14.9 9.8 66 3.3 SSE 7 9 4 5 1031.2 1031.0 0.0
20/07:30pm 16.0 14.6 9.4 65 3.4 S 7 9 4 5 1030.9 1030.7 0.0
20/07:00pm 16.0 13.9 9.9 67 3.2 S 11 19 6 10 1030.7 1030.5 0.0
20/06:30pm 15.9 12.8 10.2 69 3.0 SSE 17 28 9 15 1030.5 1030.3 0.0
20/06:00pm 16.4 12.4 10.3 67 3.2 SE 22 33 12 18 1030.3 1030.1 0.0
20/05:30pm 16.7 12.5 9.9 64 3.6 S 22 35 12 19 1030.1 1029.9 0.0
20/05:00pm 16.9 12.8 10.1 64 3.6 S 22 32 12 17 1030.1 1029.9 0.0
20/04:30pm 17.1 13.4 10.0 63 3.8 SSE 20 32 11 17 1030.0 1029.8 0.0
20/04:00pm 17.0 13.0 10.6 66 3.4 SSE 22 39 12 21 1030.1 1029.9 0.0
20/03:30pm 17.0 12.8 11.1 68 3.2 SSE 24 35 13 19 1029.9 1029.7 0.0
20/03:00pm 17.2 12.6 11.0 67 3.3 SSE 26 39 14 21 1030.0 1029.8 0.0
20/02:30pm 17.0 12.5 11.5 70 3.0 SSE 26 39 14 21 1030.3 1030.1 0.0
20/02:00pm 16.9 12.5 11.6 71 2.9 SSE 26 35 14 19 1030.6 1030.4 0.0
20/01:30pm 17.8 14.3 12.3 70 3.1 S 22 33 12 18 1030.5 1030.3 0.0
20/01:00pm 17.6 14.3 12.7 73 2.7 S 22 32 12 17 1030.6 1030.4 0.0
20/12:30pm 18.5 14.4 11.3 63 3.9 S 24 43 13 23 1030.6 1030.4 0.0
20/12:00pm 18.8 14.3 10.1 57 4.6 S 24 35 13 19 1030.6 1030.4 0.0
20/11:30am 19.2 14.7 10.2 56 4.8 S 24 35 13 19 1030.8 1030.6 0.0
20/11:00am 18.2 14.2 10.6 61 4.1 S 22 32 12 17 1030.8 1030.6 0.0
20/10:30am 18.1 13.9 11.0 63 3.9 SSE 24 39 13 21 1030.7 1030.5 0.0
20/10:24am 17.9 12.3 10.3 61 4.1 SSE 30 48 16 26 1030.7 1030.5 0.0
20/10:00am 18.3 13.0 9.9 58 4.4 S 28 44 15 24 1030.3 1030.1 0.0
20/09:30am 18.2 13.1 10.6 61 4.1 S 28 46 15 25 1029.9 1029.7 0.0
20/09:04am 18.2 13.0 10.1 59 4.3 S 28 50 15 27 1029.1 1029.0 0.0
20/09:00am 18.4 13.6 10.3 59 4.3 S 26 44 14 24 1029.1 1029.0 0.0
20/08:39am 17.7 12.7 11.0 65 3.6 S 28 52 15 28 1028.6 1028.5 0.0
20/08:30am 18.0 13.7 10.9 63 3.8 S 24 33 13 18 1028.4 1028.3 0.0
20/08:00am 17.9 13.0 11.2 65 3.6 S 28 48 15 26 1027.7 1027.6 0.0
20/07:30am 17.5 11.8 11.3 67 3.4 S 32 56 17 30 1026.6 1026.5 0.0
20/07:00am 17.2 10.7 11.7 70 3.0 SSE 37 61 20 33 1025.5 1025.4 0.0
20/06:30am 16.9 10.3 12.6 76 2.4 SSE 39 63 21 34 1024.5 1024.4 0.0
20/06:00am 17.4 11.2 13.7 79 2.1 S 39 69 21 37 1023.7 1023.6 0.0
20/05:40am 18.0 13.6 14.1 78 2.2 S 30 56 16 30 1023.3 1023.2 0.0
20/05:30am 17.4 14.3 13.5 78 2.2 S 22 35 12 19 1023.1 1023.0 0.0
20/05:00am 13.0 11.5 11.9 93 0.6 WSW 11 15 6 8 1021.6 1021.5 0.0
20/04:30am 12.8 12.1 11.5 92 0.7 WSW 6 7 3 4 1021.3 1021.2 0.0
20/04:00am 12.7 12.0 11.3 91 0.7 WSW 6 9 3 5 1021.3 1021.2 0.0
20/03:30am 13.2 13.8 11.8 91 0.7 CALM 0 0 0 0 1021.6 1021.5 0.0
20/03:00am 13.6 14.2 12.0 90 0.9 CALM 0 0 0 0 1021.9 1021.8 0.0
20/02:30am 13.7 14.3 11.9 89 1.0 CALM 0 0 0 0 1021.9 1021.8 0.0
20/02:00am 14.2 14.1 12.2 88 1.1 SW 4 7 2 4 1021.7 1021.6 0.0
20/01:30am 14.9 14.5 12.4 85 1.4 E 6 7 3 4 1022.3 1022.2 0.0
20/01:00am 14.6 14.2 12.3 86 1.2 SE 6 7 3 4 1022.5 1022.4 0.0
20/12:30am 14.5 14.5 12.4 87 1.1 SW 4 6 2 3 1022.9 1022.8 0.0
20/12:00am 14.8 14.2 11.8 82 1.6 SSW 6 7 3 4 1023.2 1023.1 0.0
 
Date/Time
EDT
Tmp

°C
App
Tmp
°C
Dew
Point
°C
Rel
Hum
%
Delta-T

°C
Wind Press
QNH
hPa
Press
MSL
hPa
Rain
since
9 am
mm
Dir
 
Spd
km/h
Gust
km/h
Spd
kts
Gust
kts
19/11:30pm 16.2 15.7 12.6 79 2.0 SSE 7 9 4 5 1023.2 1023.1 0.0
19/11:00pm 16.7 16.2 12.5 76 2.3 SE 7 9 4 5 1023.2 1023.1 0.0
19/10:30pm 17.2 16.7 12.7 75 2.5 ESE 7 9 4 5 1023.2 1023.1 0.0
19/10:00pm 18.0 17.2 12.9 72 2.9 E 9 11 5 6 1023.3 1023.2 0.0
19/09:30pm 18.3 17.4 12.7 70 3.1 E 9 13 5 7 1023.3 1023.2 0.0
19/09:00pm 18.4 17.5 12.6 69 3.2 E 9 13 5 7 1022.9 1022.8 0.0
19/08:30pm 19.0 18.0 12.3 65 3.7 E 9 11 5 6 1022.7 1022.6 0.0
19/08:00pm 19.7 17.9 12.2 62 4.2 E 13 17 7 9 1022.2 1022.1 0.0
19/07:30pm 20.4 18.5 11.9 58 4.7 E 13 17 7 9 1022.0 1021.9 0.0
19/07:00pm 21.5 19.6 11.8 54 5.4 E 13 17 7 9 1021.7 1021.6 0.0
19/06:30pm 23.0 20.7 11.7 49 6.4 E 15 20 8 11 1021.4 1021.3 0.0
19/06:00pm 24.3 21.7 11.9 45 7.0 E 17 22 9 12 1021.2 1021.1 0.0
19/05:30pm 25.3 22.9 12.5 45 7.4 ENE 17 24 9 13 1021.2 1021.1 0.0
19/05:00pm 26.6 24.0 11.9 40 8.4 E 17 24 9 13 1021.1 1021.0 0.0
19/04:30pm 28.3 25.9 7.0 26 11.4 NNE 9 13 5 7 1021.1 1021.0 0.0
19/04:00pm 28.1 25.3 6.8 26 11.3 NE 11 19 6 10 1021.3 1021.2 0.0
19/03:30pm 28.1 25.4 7.4 27 11.1 N 11 17 6 9 1021.7 1021.6 0.0
19/03:00pm 27.5 25.1 6.8 27 10.9 NNE 9 17 5 9 1022.1 1022.0 0.0
19/02:30pm 27.0 23.8 6.9 28 10.6 NNE 13 20 7 11 1022.6 1022.5 0.0
19/02:00pm 26.7 23.6 5.6 26 10.9 NNW 11 24 6 13 1023.0 1022.9 0.0
19/01:30pm 25.7 22.3 7.8 32 9.6 N 15 22 8 12 1023.5 1023.4 0.0
19/01:00pm 24.9 21.6 8.0 34 9.0 NNE 15 22 8 12 1024.0 1023.9 0.0
19/12:30pm 24.8 21.8 9.1 37 8.5 N 15 22 8 12 1024.4 1024.3 0.0
19/12:00pm 23.6 21.3 10.3 43 7.3 N 13 26 7 14 1024.9 1024.8 0.0
19/11:30am 22.3 19.3 9.1 43 7.1 NNW 15 20 8 11 1025.6 1025.5 0.0
19/11:00am 21.1 19.0 9.7 48 6.1 N 11 20 6 11 1026.2 1026.1 0.0
19/10:30am 19.7 16.8 9.6 52 5.4 N 15 20 8 11 1026.9 1026.8 0.0
19/10:00am 18.4 16.8 10.3 59 4.3 NNW 9 15 5 8 1027.4 1027.3 0.0
19/09:30am 16.6 15.3 9.8 64 3.6 NW 7 13 4 7 1027.7 1027.6 0.0
19/09:00am 15.4 13.7 9.7 69 2.9 WNW 9 13 5 7 1027.6 1027.5 0.0
19/08:30am 14.1 11.9 9.3 73 2.5 NW 11 13 6 7 1027.7 1027.6 0.0
19/08:00am 13.0 11.5 9.3 78 1.9 WNW 7 11 4 6 1027.6 1027.5 0.0
19/07:30am 11.2 9.3 8.9 86 1.1 WSW 9 11 5 6 1027.6 1027.5 0.0
19/07:00am 10.0 8.7 9.1 94 0.4 SW 6 7 3 4 1027.2 1027.1 0.0
19/06:30am 7.9 6.0 6.8 93 0.5 SW 6 7 3 4 1026.9 1026.8 0.0
19/06:00am 7.5 6.7 6.3 92 0.5 CALM 0 0 0 0 1026.8 1026.7 0.0
19/05:30am 9.1 8.6 7.7 91 0.7 CALM 0 0 0 0 1026.5 1026.4 0.0
19/05:00am 9.3 7.7 7.9 91 0.7 ESE 6 6 3 3 1026.8 1026.7 0.0
19/04:30am 9.5 8.3 8.1 91 0.7 ESE 4 6 2 3 1026.9 1026.8 0.0
19/04:00am 9.8 8.6 8.1 89 0.8 ESE 4 6 2 3 1027.1 1027.0 0.0
19/03:30am 10.1 9.7 8.4 89 0.8 CALM 0 0 0 0 1027.0 1026.9 0.0
19/03:00am 10.2 8.7 8.5 89 0.8 ESE 6 7 3 4 1027.1 1027.0 0.0
19/02:30am 9.9 8.1 8.0 88 0.9 E 7 7 4 4 1027.3 1027.2 0.0
19/02:00am 10.2 9.8 8.3 88 0.9 CALM 0 0 0 0 1027.5 1027.4 0.0
19/01:30am 10.4 10.1 8.5 88 0.9 CALM 0 0 0 0 1027.8 1027.7 0.0
19/01:00am 10.7 10.4 8.6 87 1.0 CALM 0 0 0 0 1028.3 1028.2 0.0
19/12:30am 10.9 10.6 8.7 86 1.1 CALM 0 0 0 0 1028.5 1028.4 0.0
19/12:00am 11.5 11.3 8.9 84 1.3 CALM 0 0 0 0 1028.5 1028.4 0.0
 
Date/Time
EDT
Tmp

°C
App
Tmp
°C
Dew
Point
°C
Rel
Hum
%
Delta-T

°C
Wind Press
QNH
hPa
Press
MSL
hPa
Rain
since
9 am
mm
Dir
 
Spd
km/h
Gust
km/h
Spd
kts
Gust
kts
18/11:30pm 11.8 11.5 8.8 82 1.5 CALM 0 0 0 0 1028.4 1028.3 0.0
18/11:00pm 12.1 11.9 8.9 81 1.6 CALM 0 0 0 0 1028.6 1028.5 0.0
18/10:30pm 12.4 12.2 9.1 80 1.7 CALM 0 0 0 0 1028.9 1028.8 0.0
18/10:00pm 12.6 11.7 9.1 79 1.8 N 4 7 2 4 1029.0 1028.9 0.0
18/09:30pm 13.5 12.8 8.6 72 2.5 NE 2 6 1 3 1028.9 1028.8 0.0
18/09:00pm 15.0 13.4 8.9 67 3.1 NE 7 11 4 6 1028.5 1028.4 0.0
18/08:30pm 15.2 13.5 8.4 64 3.4 ENE 7 9 4 5 1028.1 1028.0 0.0
18/08:00pm 15.7 13.2 8.4 62 3.7 ENE 11 15 6 8 1027.7 1027.6 0.0
18/07:30pm 16.0 13.9 8.2 60 4.0 ENE 9 17 5 9 1027.5 1027.4 0.0
18/07:00pm 16.7 13.8 8.1 57 4.3 ENE 13 19 7 10 1027.0 1026.9 0.0
18/06:30pm 17.8 14.6 8.4 54 4.8 ENE 15 20 8 11 1026.7 1026.6 0.0
18/06:00pm 18.5 14.9 8.2 51 5.3 ENE 17 22 9 12 1026.4 1026.3 0.0
18/05:30pm 19.0 15.0 8.4 50 5.5 E 19 26 10 14 1026.3 1026.2 0.0
18/05:00pm 19.1 14.9 8.4 50 5.5 E 20 28 11 15 1026.2 1026.1 0.0
18/04:30pm 19.5 15.4 8.8 50 5.6 E 20 28 11 15 1026.4 1026.3 0.0
18/04:00pm 19.6 15.8 8.9 50 5.6 E 19 28 10 15 1026.3 1026.2 0.0
18/03:30pm 20.1 16.5 9.9 52 5.5 E 19 24 10 13 1026.6 1026.5 0.0
18/03:00pm 20.5 17.6 9.7 50 5.8 ENE 15 24 8 13 1026.9 1026.8 0.0
18/02:30pm 20.4 17.7 9.0 48 6.0 ENE 13 20 7 11 1027.3 1027.2 0.0
18/02:00pm 19.1 15.8 6.6 44 6.2 NNE 13 24 7 13 1027.6 1027.5 0.0
18/01:30pm 19.4 17.7 8.4 49 5.7 ESE 7 13 4 7 1027.8 1027.7 0.0
18/01:00pm 18.4 16.2 7.8 50 5.4 E 9 15 5 8 1028.3 1028.2 0.0
18/12:30pm 18.4 16.1 7.5 49 5.5 ESE 9 20 5 11 1028.9 1028.8 0.0
18/12:00pm 18.5 16.0 8.2 51 5.3 N 11 15 6 8 1029.4 1029.3 0.0
18/11:30am 18.0 15.5 8.3 53 5.0 NNE 11 19 6 10 1029.8 1029.6 0.0
18/11:00am 18.0 16.0 8.6 54 4.8 ENE 9 17 5 9 1030.1 1029.9 0.0
18/10:30am 17.2 15.3 9.1 59 4.2 NE 9 15 5 8 1030.3 1030.1 0.0
18/10:00am 16.8 15.7 10.0 64 3.6 N 6 9 3 5 1030.3 1030.1 0.0
18/09:30am 16.3 15.3 10.2 67 3.2 W 6 9 3 5 1030.3 1030.1 0.0
18/09:00am 14.2 12.9 9.8 75 2.3 W 7 9 4 5 1030.0 1029.8 0.0
18/08:30am 12.3 10.4 9.1 81 1.6 W 9 11 5 6 1029.9 1029.7 0.0

Latest Capital City Observations: Canberra | Sydney | Melbourne | Brisbane | Adelaide | Perth | Hobart | Darwin

Other Formats:

Comma delimited format used in spreadsheet applications
http://www.bom.gov.au/fwo/IDN60901/IDN60901.95761.axf

JavaScript Object Notation format (JSON) in row-major order
http://www.bom.gov.au/fwo/IDN60901/IDN60901.95761.json